Главная страница
METAR-TAF:

METAR-TAF

Аэропорты :

Dzaoudzi, Майотта

широта: 12-48S, долгота: 045-17E, высота над уровнем моря: 8 м

Текущие метеонаблюдения

Эта сводка был подготовлена 21 минут назад, в 13:30 UTC
Ветер 9 Узел от северо-западный
Температура 30°C
Влажность 70%
Давление 1010 hPa
Видимость 10 км и более
Нет облачности ниже 1500 м, и нет кучево-дождевой облачности

METAR: FMCZ 191330Z AUTO 31009KT CAVOK 30/24 Q1010 NOSIG

Время: 16:51 (13:51 UTC)

Прогноз

Эта сводка был подготовлена 2 часа и 51 минут назад, в 11:00 UTC
Прогноз действительный с 19-го 12 UTC до 20-го 12 UTC
Ветер 12 Узел от северо-западный
Видимость 10 км и более
Отдельные облака на высоте 2300 фута
временами
С 20-го 01 UTC до 20-го 03 UTC
Видимость: 3500 м
Отдельные облака на высоте 1500 фута, мощно-кучевые.
ливневые дожди
временами
С 20-го 10 UTC до 20-го 12 UTC
ливневые дожди

TAF: FMCZ 191100Z 1912/2012 31012KT 9999 SCT023 TEMPO 2001/2003 3500 SHRA SCT015TCU TEMPO 2010/2012 SHRA

Метеонаблюдения и прогнозы для более 4000 аэропортов (сводки METAR и TAF).

Имеющиеся станции представлены на карте желтыми и красными точками.

Чтобы увидеть название станции, наведите на нее мышь.

Затем щелкните, чтобы увидеть метеонаблюдения и метеопрогнозы.

Управление картой: чтобы увеличить масштаб, щелкните зеленые кнопки с черным крестиком; чтобы уменьшить масштаб, щелкните зеленую кнопку с тире; для просмотра соседних карт щелкайте зеленые стрелки.


METAR-TAF: